This is the latest recevied weather packets stored in our database for station/object IN3MWE-10. If no packets are shown the sender has not sent any weather packets the latest 10 day(s).
| Time | Temp. | Humidity | Pressure | Rain* | Wind** | Luminosity | Snow |
|---|---|---|---|---|---|---|---|
| 1788253526 | 25.56° C | 49% | 984.4 hPa | - | - | - | - |
| 1788252640 | 26.11° C | 45% | 984.3 hPa | - | - | - | - |
| 1788251725 | 25° C | 49% | 984.4 hPa | - | - | - | - |
| 1788250818 | 27.78° C | 39% | 984.5 hPa | - | - | - | - |
| 1788249918 | 26.11° C | 44% | 984.7 hPa | - | - | - | - |
| 1788249018 | 25° C | 50% | 984.8 hPa | - | - | - | - |
| 1788248118 | 23.89° C | 56% | 984.8 hPa | - | - | - | - |
| 1788247218 | 21.11° C | 76% | 985 hPa | - | - | - | - |
| 1788246318 | 18.33° C | 92% | 985.2 hPa | - | - | - | - |
| 1788245418 | 17.78° C | 89% | 985.3 hPa | - | - | - | - |
| 1788244517 | 17.78° C | 94% | 985.4 hPa | - | - | - | - |
| 1788243617 | 17.22° C | 99% | 985.4 hPa | - | - | - | - |
| 1788242717 | 18.33° C | 95% | 985.4 hPa | - | - | - | - |
| 1788241817 | 17.22° C | 94% | 985.1 hPa | - | - | - | - |
| 1788240916 | 17.22° C | 93% | 985 hPa | - | - | - | - |
| 1788240016 | 17.22° C | 92% | 985.1 hPa | - | - | - | - |
| 1788239116 | 17.22° C | 91% | 984.8 hPa | - | - | - | - |
| 1788238216 | 17.22° C | 91% | 984.6 hPa | - | - | - | - |
| 1788237316 | 17.22° C | 91% | 984.5 hPa | - | - | - | - |
| 1788236416 | 17.22° C | 91% | 984.3 hPa | - | - | - | - |
| 1788235516 | 17.78° C | 90% | 984.1 hPa | - | - | - | - |
| 1788234616 | 17.78° C | 91% | 984 hPa | - | - | - | - |
| 1788233715 | 17.78° C | 91% | 983.9 hPa | - | - | - | - |
| 1788232815 | 17.78° C | 88% | 983.7 hPa | - | - | - | - |
| 1788231914 | 17.78° C | 90% | 983.8 hPa | - | - | - | - |
* Rain since midnight (hover to see other rain measurements)
** Current wind speed in m/s (hover to see current wind gust speed)